Thousand Springs, Nevada
Current Conditions -  °F | °C
As of 3:55 PM on Monday 20 Oct 2014 (Local Time) from KENV Reporting Station
Clear Clear  
Wind Chill: 66°   Ceiling: Unl
Heat Index: 66°   Visibility: 10mi
Dew Point: 36°   Wind: 0mph
Humidity: 32%   Direction: NA
Pressure: 29.93"   Gusts: NA
Location:  41.0114°N, 114.57°W
Report Text: KENV 202255Z AUTO 00000KT 10SM CLR 19/02 A2993 RMK AO1
Loading
Personal Weather Stations






























Interactive Weather Map New forecast layout! Learn more

10-Day Weather Forecast

Advertisements
Track Severe Weather on mobile